sensor_id;sensor_type;location;lat;lon;timestamp;P1;durP1;ratioP1;P2;durP2;ratioP2
17151;SDS011;8691;50.828;4.700;2022-10-13T00:01:47;15.13;;;8.63;;
17151;SDS011;8691;50.828;4.700;2022-10-13T00:04:14;12.82;;;9.45;;
17151;SDS011;8691;50.828;4.700;2022-10-13T00:06:40;15.80;;;8.10;;
17151;SDS011;8691;50.828;4.700;2022-10-13T00:09:07;13.15;;;9.62;;
17151;SDS011;8691;50.828;4.700;2022-10-13T00:11:34;12.98;;;9.30;;
17151;SDS011;8691;50.828;4.700;2022-10-13T00:14:02;13.07;;;9.50;;
17151;SDS011;8691;50.828;4.700;2022-10-13T00:16:28;13.45;;;9.77;;
17151;SDS011;8691;50.828;4.700;2022-10-13T00:18:56;13.73;;;9.38;;
17151;SDS011;8691;50.828;4.700;2022-10-13T00:21:23;12.73;;;8.90;;
17151;SDS011;8691;50.828;4.700;2022-10-13T00:23:50;12.17;;;8.27;;
17151;SDS011;8691;50.828;4.700;2022-10-13T00:26:16;12.98;;;9.20;;
17151;SDS011;8691;50.828;4.700;2022-10-13T00:28:43;10.13;;;7.80;;
17151;SDS011;8691;50.828;4.700;2022-10-13T00:31:13;13.27;;;9.23;;
17151;SDS011;8691;50.828;4.700;2022-10-13T00:33:39;10.07;;;8.07;;
17151;SDS011;8691;50.828;4.700;2022-10-13T00:36:06;13.23;;;8.90;;
17151;SDS011;8691;50.828;4.700;2022-10-13T00:38:34;12.35;;;8.80;;
17151;SDS011;8691;50.828;4.700;2022-10-13T00:41:01;10.77;;;8.65;;
17151;SDS011;8691;50.828;4.700;2022-10-13T00:46:16;12.12;;;8.70;;
17151;SDS011;8691;50.828;4.700;2022-10-13T00:48:44;12.15;;;8.32;;
17151;SDS011;8691;50.828;4.700;2022-10-13T00:51:11;13.45;;;8.38;;
17151;SDS011;8691;50.828;4.700;2022-10-13T00:53:38;12.20;;;8.48;;
17151;SDS011;8691;50.828;4.700;2022-10-13T00:56:06;14.63;;;8.67;;
17151;SDS011;8691;50.828;4.700;2022-10-13T00:58:33;11.52;;;7.97;;
17151;SDS011;8691;50.828;4.700;2022-10-13T01:00:59;10.47;;;7.20;;
17151;SDS011;8691;50.828;4.700;2022-10-13T01:03:26;9.93;;;7.53;;
17151;SDS011;8691;50.828;4.700;2022-10-13T01:05:54;13.73;;;8.75;;
17151;SDS011;8691;50.828;4.700;2022-10-13T01:08:20;10.50;;;7.43;;
17151;SDS011;8691;50.828;4.700;2022-10-13T01:11:13;14.12;;;8.62;;
17151;SDS011;8691;50.828;4.700;2022-10-13T01:16:29;12.50;;;8.40;;
17151;SDS011;8691;50.828;4.700;2022-10-13T01:18:58;11.70;;;7.53;;
17151;SDS011;8691;50.828;4.700;2022-10-13T01:21:42;13.43;;;8.55;;
17151;SDS011;8691;50.828;4.700;2022-10-13T01:34:22;11.18;;;8.73;;
17151;SDS011;8691;50.828;4.700;2022-10-13T01:37:07;10.38;;;8.10;;
17151;SDS011;8691;50.828;4.700;2022-10-13T01:39:42;13.83;;;8.57;;
17151;SDS011;8691;50.828;4.700;2022-10-13T01:42:15;12.80;;;8.27;;
17151;SDS011;8691;50.828;4.700;2022-10-13T01:44:51;13.68;;;8.70;;
17151;SDS011;8691;50.828;4.700;2022-10-13T01:47:17;13.83;;;8.97;;
17151;SDS011;8691;50.828;4.700;2022-10-13T01:49:44;11.80;;;9.20;;
17151;SDS011;8691;50.828;4.700;2022-10-13T01:52:11;12.50;;;8.60;;
17151;SDS011;8691;50.828;4.700;2022-10-13T01:54:37;13.07;;;8.73;;
17151;SDS011;8691;50.828;4.700;2022-10-13T01:57:25;15.30;;;9.38;;
17151;SDS011;8691;50.828;4.700;2022-10-13T01:59:31;11.27;;;9.00;;
17151;SDS011;8691;50.828;4.700;2022-10-13T02:02:05;13.38;;;9.02;;
17151;SDS011;8691;50.828;4.700;2022-10-13T02:04:49;13.77;;;7.97;;
17151;SDS011;8691;50.828;4.700;2022-10-13T02:08:16;13.13;;;9.00;;
17151;SDS011;8691;50.828;4.700;2022-10-13T02:10:01;12.35;;;9.38;;
17151;SDS011;8691;50.828;4.700;2022-10-13T02:12:28;14.57;;;9.50;;
17151;SDS011;8691;50.828;4.700;2022-10-13T02:14:56;12.13;;;9.73;;
17151;SDS011;8691;50.828;4.700;2022-10-13T02:17:22;14.75;;;10.12;;
17151;SDS011;8691;50.828;4.700;2022-10-13T02:19:49;12.23;;;9.77;;
17151;SDS011;8691;50.828;4.700;2022-10-13T02:22:17;14.00;;;9.40;;
17151;SDS011;8691;50.828;4.700;2022-10-13T02:24:45;13.02;;;9.45;;
17151;SDS011;8691;50.828;4.700;2022-10-13T02:27:11;14.43;;;9.67;;
17151;SDS011;8691;50.828;4.700;2022-10-13T02:29:48;12.30;;;9.60;;
17151;SDS011;8691;50.828;4.700;2022-10-13T02:32:14;14.77;;;9.90;;
17151;SDS011;8691;50.828;4.700;2022-10-13T02:34:41;14.85;;;9.98;;
17151;SDS011;8691;50.828;4.700;2022-10-13T02:37:08;15.32;;;9.52;;
17151;SDS011;8691;50.828;4.700;2022-10-13T02:39:35;16.00;;;10.00;;
17151;SDS011;8691;50.828;4.700;2022-10-13T02:42:02;12.43;;;7.97;;
17151;SDS011;8691;50.828;4.700;2022-10-13T02:44:30;14.13;;;9.27;;
17151;SDS011;8691;50.828;4.700;2022-10-13T02:46:56;15.70;;;9.50;;
17151;SDS011;8691;50.828;4.700;2022-10-13T02:49:23;11.57;;;9.37;;
17151;SDS011;8691;50.828;4.700;2022-10-13T02:51:51;12.23;;;9.38;;
17151;SDS011;8691;50.828;4.700;2022-10-13T02:54:17;13.32;;;9.50;;
17151;SDS011;8691;50.828;4.700;2022-10-13T02:56:44;15.25;;;9.93;;
17151;SDS011;8691;50.828;4.700;2022-10-13T02:59:11;12.23;;;9.65;;
17151;SDS011;8691;50.828;4.700;2022-10-13T03:01:38;16.08;;;10.35;;
17151;SDS011;8691;50.828;4.700;2022-10-13T03:04:04;14.07;;;10.53;;
17151;SDS011;8691;50.828;4.700;2022-10-13T03:06:31;14.27;;;10.30;;
17151;SDS011;8691;50.828;4.700;2022-10-13T03:08:58;12.40;;;9.70;;
17151;SDS011;8691;50.828;4.700;2022-10-13T03:11:25;12.70;;;9.67;;
17151;SDS011;8691;50.828;4.700;2022-10-13T03:13:52;13.77;;;9.70;;
17151;SDS011;8691;50.828;4.700;2022-10-13T03:16:19;14.20;;;9.45;;
17151;SDS011;8691;50.828;4.700;2022-10-13T03:18:46;13.90;;;9.68;;
17151;SDS011;8691;50.828;4.700;2022-10-13T03:21:12;12.52;;;9.50;;
17151;SDS011;8691;50.828;4.700;2022-10-13T03:23:39;13.68;;;9.73;;
17151;SDS011;8691;50.828;4.700;2022-10-13T03:26:06;12.85;;;9.45;;
17151;SDS011;8691;50.828;4.700;2022-10-13T03:28:33;13.47;;;8.70;;
17151;SDS011;8691;50.828;4.700;2022-10-13T03:31:00;14.45;;;9.85;;
17151;SDS011;8691;50.828;4.700;2022-10-13T03:33:27;16.58;;;9.93;;
17151;SDS011;8691;50.828;4.700;2022-10-13T03:35:53;12.67;;;8.50;;
17151;SDS011;8691;50.828;4.700;2022-10-13T03:38:20;17.55;;;9.62;;
17151;SDS011;8691;50.828;4.700;2022-10-13T03:40:47;15.43;;;10.00;;
17151;SDS011;8691;50.828;4.700;2022-10-13T03:43:14;15.60;;;10.32;;
17151;SDS011;8691;50.828;4.700;2022-10-13T03:45:41;15.30;;;9.00;;
17151;SDS011;8691;50.828;4.700;2022-10-13T03:48:08;14.67;;;8.60;;
17151;SDS011;8691;50.828;4.700;2022-10-13T03:50:36;12.33;;;8.60;;
17151;SDS011;8691;50.828;4.700;2022-10-13T03:53:02;17.17;;;10.52;;
17151;SDS011;8691;50.828;4.700;2022-10-13T03:55:29;11.73;;;8.90;;
17151;SDS011;8691;50.828;4.700;2022-10-13T03:57:56;17.25;;;10.52;;
17151;SDS011;8691;50.828;4.700;2022-10-13T04:00:23;17.02;;;10.20;;
17151;SDS011;8691;50.828;4.700;2022-10-13T04:02:50;15.82;;;10.30;;
17151;SDS011;8691;50.828;4.700;2022-10-13T04:05:17;14.80;;;8.93;;
17151;SDS011;8691;50.828;4.700;2022-10-13T04:07:44;13.33;;;8.87;;
17151;SDS011;8691;50.828;4.700;2022-10-13T04:10:12;16.83;;;10.55;;
17151;SDS011;8691;50.828;4.700;2022-10-13T04:12:39;16.27;;;10.50;;
17151;SDS011;8691;50.828;4.700;2022-10-13T04:15:06;16.60;;;9.70;;
17151;SDS011;8691;50.828;4.700;2022-10-13T04:17:33;16.07;;;10.70;;
17151;SDS011;8691;50.828;4.700;2022-10-13T04:20:00;15.07;;;10.67;;
17151;SDS011;8691;50.828;4.700;2022-10-13T04:22:27;16.20;;;10.77;;
17151;SDS011;8691;50.828;4.700;2022-10-13T04:24:53;16.33;;;10.77;;
17151;SDS011;8691;50.828;4.700;2022-10-13T04:27:20;17.00;;;9.20;;
17151;SDS011;8691;50.828;4.700;2022-10-13T04:29:47;17.20;;;10.80;;
17151;SDS011;8691;50.828;4.700;2022-10-13T04:32:14;16.35;;;10.57;;
17151;SDS011;8691;50.828;4.700;2022-10-13T04:34:40;14.07;;;9.37;;
17151;SDS011;8691;50.828;4.700;2022-10-13T04:37:07;15.85;;;11.45;;
17151;SDS011;8691;50.828;4.700;2022-10-13T04:39:35;19.13;;;10.20;;
17151;SDS011;8691;50.828;4.700;2022-10-13T04:42:02;15.15;;;11.15;;
17151;SDS011;8691;50.828;4.700;2022-10-13T04:44:29;18.05;;;11.70;;
17151;SDS011;8691;50.828;4.700;2022-10-13T04:46:56;17.67;;;10.40;;
17151;SDS011;8691;50.828;4.700;2022-10-13T04:49:24;15.48;;;11.95;;
17151;SDS011;8691;50.828;4.700;2022-10-13T04:51:51;18.00;;;11.93;;
17151;SDS011;8691;50.828;4.700;2022-10-13T04:54:18;17.52;;;12.40;;
17151;SDS011;8691;50.828;4.700;2022-10-13T04:56:45;18.77;;;12.53;;
17151;SDS011;8691;50.828;4.700;2022-10-13T04:59:12;14.57;;;11.33;;
17151;SDS011;8691;50.828;4.700;2022-10-13T05:01:39;18.30;;;11.90;;
17151;SDS011;8691;50.828;4.700;2022-10-13T05:04:06;16.73;;;12.10;;
17151;SDS011;8691;50.828;4.700;2022-10-13T05:06:33;17.27;;;12.38;;
17151;SDS011;8691;50.828;4.700;2022-10-13T05:08:59;17.12;;;11.85;;
17151;SDS011;8691;50.828;4.700;2022-10-13T05:11:26;16.52;;;11.43;;
17151;SDS011;8691;50.828;4.700;2022-10-13T05:13:53;16.83;;;11.80;;
17151;SDS011;8691;50.828;4.700;2022-10-13T05:16:21;18.77;;;10.83;;
17151;SDS011;8691;50.828;4.700;2022-10-13T05:18:49;17.90;;;12.10;;
17151;SDS011;8691;50.828;4.700;2022-10-13T05:21:17;18.90;;;12.73;;
17151;SDS011;8691;50.828;4.700;2022-10-13T05:23:42;16.20;;;10.60;;
17151;SDS011;8691;50.828;4.700;2022-10-13T05:26:11;18.02;;;11.80;;
17151;SDS011;8691;50.828;4.700;2022-10-13T05:28:36;16.98;;;11.43;;
17151;SDS011;8691;50.828;4.700;2022-10-13T05:31:13;14.07;;;10.10;;
17151;SDS011;8691;50.828;4.700;2022-10-13T05:33:37;18.67;;;12.80;;
17151;SDS011;8691;50.828;4.700;2022-10-13T05:36:05;15.97;;;11.83;;
17151;SDS011;8691;50.828;4.700;2022-10-13T05:38:34;20.48;;;12.20;;
17151;SDS011;8691;50.828;4.700;2022-10-13T05:41:03;16.93;;;11.83;;
17151;SDS011;8691;50.828;4.700;2022-10-13T05:43:29;17.30;;;12.63;;
17151;SDS011;8691;50.828;4.700;2022-10-13T05:45:55;19.63;;;11.20;;
17151;SDS011;8691;50.828;4.700;2022-10-13T05:48:22;17.17;;;11.88;;
17151;SDS011;8691;50.828;4.700;2022-10-13T05:50:49;17.12;;;11.60;;
17151;SDS011;8691;50.828;4.700;2022-10-13T05:53:16;16.35;;;11.70;;
17151;SDS011;8691;50.828;4.700;2022-10-13T05:55:43;18.60;;;12.12;;
17151;SDS011;8691;50.828;4.700;2022-10-13T05:58:10;12.70;;;10.30;;
17151;SDS011;8691;50.828;4.700;2022-10-13T06:00:38;17.55;;;11.88;;
17151;SDS011;8691;50.828;4.700;2022-10-13T06:03:06;17.20;;;12.07;;
17151;SDS011;8691;50.828;4.700;2022-10-13T06:05:32;14.90;;;11.80;;
17151;SDS011;8691;50.828;4.700;2022-10-13T06:07:59;17.73;;;9.83;;
17151;SDS011;8691;50.828;4.700;2022-10-13T06:10:26;17.90;;;12.00;;
17151;SDS011;8691;50.828;4.700;2022-10-13T06:12:53;18.52;;;10.98;;
17151;SDS011;8691;50.828;4.700;2022-10-13T06:15:19;13.33;;;9.60;;
17151;SDS011;8691;50.828;4.700;2022-10-13T06:17:46;17.12;;;11.85;;
17151;SDS011;8691;50.828;4.700;2022-10-13T06:20:14;14.67;;;9.87;;
17151;SDS011;8691;50.828;4.700;2022-10-13T06:22:41;15.77;;;11.45;;
17151;SDS011;8691;50.828;4.700;2022-10-13T06:25:09;16.53;;;11.70;;
17151;SDS011;8691;50.828;4.700;2022-10-13T06:27:37;18.02;;;11.48;;
17151;SDS011;8691;50.828;4.700;2022-10-13T06:30:04;15.82;;;11.05;;
17151;SDS011;8691;50.828;4.700;2022-10-13T06:32:31;14.68;;;11.68;;
17151;SDS011;8691;50.828;4.700;2022-10-13T06:34:58;13.20;;;10.90;;
17151;SDS011;8691;50.828;4.700;2022-10-13T06:37:24;14.57;;;11.98;;
17151;SDS011;8691;50.828;4.700;2022-10-13T06:39:52;14.40;;;11.70;;
17151;SDS011;8691;50.828;4.700;2022-10-13T06:42:19;17.85;;;11.90;;
17151;SDS011;8691;50.828;4.700;2022-10-13T06:44:45;13.93;;;8.93;;
17151;SDS011;8691;50.828;4.700;2022-10-13T06:47:12;20.50;;;14.43;;
17151;SDS011;8691;50.828;4.700;2022-10-13T06:49:39;15.35;;;10.60;;
17151;SDS011;8691;50.828;4.700;2022-10-13T06:52:06;13.30;;;11.00;;
17151;SDS011;8691;50.828;4.700;2022-10-13T06:54:33;13.60;;;9.95;;
17151;SDS011;8691;50.828;4.700;2022-10-13T06:57:00;14.27;;;10.02;;
17151;SDS011;8691;50.828;4.700;2022-10-13T06:59:27;14.07;;;10.02;;
17151;SDS011;8691;50.828;4.700;2022-10-13T07:01:54;13.75;;;9.88;;
17151;SDS011;8691;50.828;4.700;2022-10-13T07:04:21;13.17;;;9.63;;
17151;SDS011;8691;50.828;4.700;2022-10-13T07:06:48;14.27;;;9.83;;
17151;SDS011;8691;50.828;4.700;2022-10-13T07:09:15;14.62;;;9.82;;
17151;SDS011;8691;50.828;4.700;2022-10-13T07:11:43;14.77;;;8.50;;
17151;SDS011;8691;50.828;4.700;2022-10-13T07:14:09;13.05;;;9.20;;
17151;SDS011;8691;50.828;4.700;2022-10-13T07:16:36;12.62;;;9.32;;
17151;SDS011;8691;50.828;4.700;2022-10-13T07:19:03;13.53;;;8.47;;
17151;SDS011;8691;50.828;4.700;2022-10-13T07:21:30;14.48;;;9.80;;
17151;SDS011;8691;50.828;4.700;2022-10-13T07:23:57;12.87;;;9.33;;
17151;SDS011;8691;50.828;4.700;2022-10-13T07:26:24;12.90;;;9.43;;
17151;SDS011;8691;50.828;4.700;2022-10-13T07:28:51;14.70;;;9.80;;
17151;SDS011;8691;50.828;4.700;2022-10-13T07:31:19;13.13;;;8.73;;
17151;SDS011;8691;50.828;4.700;2022-10-13T07:33:47;9.53;;;7.83;;
17151;SDS011;8691;50.828;4.700;2022-10-13T07:36:13;13.55;;;9.38;;
17151;SDS011;8691;50.828;4.700;2022-10-13T07:38:40;12.77;;;9.23;;
17151;SDS011;8691;50.828;4.700;2022-10-13T07:41:08;9.43;;;7.70;;
17151;SDS011;8691;50.828;4.700;2022-10-13T07:43:34;13.43;;;9.88;;
17151;SDS011;8691;50.828;4.700;2022-10-13T07:46:01;13.45;;;9.75;;
17151;SDS011;8691;50.828;4.700;2022-10-13T07:48:29;12.13;;;9.47;;
17151;SDS011;8691;50.828;4.700;2022-10-13T07:50:56;11.70;;;9.63;;
17151;SDS011;8691;50.828;4.700;2022-10-13T07:53:23;12.75;;;9.35;;
17151;SDS011;8691;50.828;4.700;2022-10-13T07:55:49;11.43;;;8.33;;
17151;SDS011;8691;50.828;4.700;2022-10-13T07:58:16;13.05;;;9.12;;
17151;SDS011;8691;50.828;4.700;2022-10-13T08:00:43;9.00;;;7.60;;
17151;SDS011;8691;50.828;4.700;2022-10-13T08:03:10;14.18;;;9.65;;
17151;SDS011;8691;50.828;4.700;2022-10-13T08:05:36;11.73;;;7.97;;
17151;SDS011;8691;50.828;4.700;2022-10-13T08:08:03;11.52;;;9.18;;
17151;SDS011;8691;50.828;4.700;2022-10-13T08:10:30;15.70;;;9.32;;
17151;SDS011;8691;50.828;4.700;2022-10-13T08:12:57;14.38;;;9.32;;
17151;SDS011;8691;50.828;4.700;2022-10-13T08:15:24;12.03;;;8.60;;
17151;SDS011;8691;50.828;4.700;2022-10-13T08:17:51;13.55;;;9.30;;
17151;SDS011;8691;50.828;4.700;2022-10-13T08:20:17;11.95;;;9.88;;
17151;SDS011;8691;50.828;4.700;2022-10-13T08:22:44;13.38;;;9.52;;
17151;SDS011;8691;50.828;4.700;2022-10-13T08:25:11;13.13;;;8.30;;
17151;SDS011;8691;50.828;4.700;2022-10-13T08:27:38;14.95;;;10.38;;
17151;SDS011;8691;50.828;4.700;2022-10-13T08:30:05;13.70;;;9.88;;
17151;SDS011;8691;50.828;4.700;2022-10-13T08:32:33;14.18;;;11.30;;
17151;SDS011;8691;50.828;4.700;2022-10-13T08:34:59;12.20;;;9.65;;
17151;SDS011;8691;50.828;4.700;2022-10-13T08:37:26;11.80;;;10.10;;
17151;SDS011;8691;50.828;4.700;2022-10-13T08:39:56;13.18;;;10.07;;
17151;SDS011;8691;50.828;4.700;2022-10-13T08:42:23;14.93;;;10.00;;
17151;SDS011;8691;50.828;4.700;2022-10-13T08:44:54;12.67;;;9.63;;
17151;SDS011;8691;50.828;4.700;2022-10-13T08:47:36;15.40;;;11.95;;
17151;SDS011;8691;50.828;4.700;2022-10-13T08:50:12;15.10;;;10.90;;
17151;SDS011;8691;50.828;4.700;2022-10-13T08:52:56;13.65;;;10.60;;
17151;SDS011;8691;50.828;4.700;2022-10-13T08:55:22;12.15;;;9.40;;
17151;SDS011;8691;50.828;4.700;2022-10-13T08:57:48;11.60;;;9.70;;
17151;SDS011;8691;50.828;4.700;2022-10-13T09:00:15;10.13;;;9.07;;
17151;SDS011;8691;50.828;4.700;2022-10-13T09:02:42;11.53;;;9.43;;
17151;SDS011;8691;50.828;4.700;2022-10-13T09:05:11;12.20;;;9.57;;
17151;SDS011;8691;50.828;4.700;2022-10-13T09:07:35;10.90;;;8.62;;
17151;SDS011;8691;50.828;4.700;2022-10-13T09:10:02;10.60;;;8.62;;
17151;SDS011;8691;50.828;4.700;2022-10-13T09:12:29;10.95;;;8.52;;
17151;SDS011;8691;50.828;4.700;2022-10-13T09:15:00;10.45;;;8.15;;
17151;SDS011;8691;50.828;4.700;2022-10-13T09:17:26;9.82;;;7.85;;
17151;SDS011;8691;50.828;4.700;2022-10-13T09:22:36;11.33;;;8.60;;
17151;SDS011;8691;50.828;4.700;2022-10-13T09:27:46;12.05;;;7.68;;
17151;SDS011;8691;50.828;4.700;2022-10-13T09:35:42;10.80;;;7.63;;
17151;SDS011;8691;50.828;4.700;2022-10-13T09:38:18;10.87;;;6.77;;
17151;SDS011;8691;50.828;4.700;2022-10-13T09:41:01;10.30;;;7.68;;
17151;SDS011;8691;50.828;4.700;2022-10-13T09:43:30;9.10;;;8.03;;
17151;SDS011;8691;50.828;4.700;2022-10-13T09:45:56;9.43;;;6.27;;
17151;SDS011;8691;50.828;4.700;2022-10-13T09:48:25;11.12;;;8.02;;
17151;SDS011;8691;50.828;4.700;2022-10-13T09:50:50;10.43;;;6.53;;
17151;SDS011;8691;50.828;4.700;2022-10-13T09:53:20;9.38;;;7.30;;
17151;SDS011;8691;50.828;4.700;2022-10-13T09:59:07;10.73;;;7.72;;
17151;SDS011;8691;50.828;4.700;2022-10-13T10:01:38;9.47;;;7.77;;
17151;SDS011;8691;50.828;4.700;2022-10-13T10:06:51;11.20;;;7.23;;
17151;SDS011;8691;50.828;4.700;2022-10-13T10:09:21;10.83;;;7.50;;
17151;SDS011;8691;50.828;4.700;2022-10-13T10:11:52;12.02;;;7.72;;
17151;SDS011;8691;50.828;4.700;2022-10-13T10:16:57;8.80;;;7.53;;
17151;SDS011;8691;50.828;4.700;2022-10-13T10:19:23;11.10;;;7.47;;
17151;SDS011;8691;50.828;4.700;2022-10-13T10:21:49;11.48;;;7.40;;
17151;SDS011;8691;50.828;4.700;2022-10-13T10:27:10;8.73;;;7.17;;
17151;SDS011;8691;50.828;4.700;2022-10-13T10:30:04;11.13;;;7.93;;
17151;SDS011;8691;50.828;4.700;2022-10-13T10:32:39;13.27;;;7.97;;
17151;SDS011;8691;50.828;4.700;2022-10-13T10:35:17;9.65;;;7.72;;
17151;SDS011;8691;50.828;4.700;2022-10-13T10:38:33;10.47;;;7.53;;
17151;SDS011;8691;50.828;4.700;2022-10-13T10:40:48;10.77;;;7.00;;
17151;SDS011;8691;50.828;4.700;2022-10-13T10:43:25;11.77;;;8.02;;
17151;SDS011;8691;50.828;4.700;2022-10-13T10:46:11;10.57;;;8.20;;
17151;SDS011;8691;50.828;4.700;2022-10-13T10:48:37;10.77;;;7.30;;
17151;SDS011;8691;50.828;4.700;2022-10-13T10:51:09;9.07;;;7.62;;
17151;SDS011;8691;50.828;4.700;2022-10-13T10:53:43;8.90;;;7.10;;
17151;SDS011;8691;50.828;4.700;2022-10-13T10:56:15;10.40;;;7.27;;
17151;SDS011;8691;50.828;4.700;2022-10-13T11:06:50;11.90;;;9.02;;
17151;SDS011;8691;50.828;4.700;2022-10-13T11:09:59;14.38;;;9.02;;
17151;SDS011;8691;50.828;4.700;2022-10-13T11:11:44;14.50;;;9.40;;
17151;SDS011;8691;50.828;4.700;2022-10-13T11:14:19;12.62;;;9.10;;
17151;SDS011;8691;50.828;4.700;2022-10-13T11:17:27;8.88;;;7.60;;
17151;SDS011;8691;50.828;4.700;2022-10-13T11:19:27;12.93;;;9.80;;
17151;SDS011;8691;50.828;4.700;2022-10-13T11:34:57;13.70;;;10.93;;
17151;SDS011;8691;50.828;4.700;2022-10-13T11:45:35;12.40;;;10.37;;
17151;SDS011;8691;50.828;4.700;2022-10-13T11:48:05;14.17;;;11.83;;
17151;SDS011;8691;50.828;4.700;2022-10-13T11:50:41;15.13;;;10.97;;
17151;SDS011;8691;50.828;4.700;2022-10-13T11:55:52;15.68;;;12.48;;
17151;SDS011;8691;50.828;4.700;2022-10-13T11:58:22;16.23;;;12.65;;
17151;SDS011;8691;50.828;4.700;2022-10-13T12:00:58;16.20;;;12.93;;
17151;SDS011;8691;50.828;4.700;2022-10-13T12:03:28;15.83;;;11.73;;
17151;SDS011;8691;50.828;4.700;2022-10-13T12:06:01;14.05;;;12.50;;
17151;SDS011;8691;50.828;4.700;2022-10-13T12:08:33;16.73;;;12.88;;
17151;SDS011;8691;50.828;4.700;2022-10-13T12:10:59;15.17;;;12.77;;
17151;SDS011;8691;50.828;4.700;2022-10-13T12:13:29;16.85;;;13.00;;
17151;SDS011;8691;50.828;4.700;2022-10-13T12:16:05;17.00;;;13.27;;
17151;SDS011;8691;50.828;4.700;2022-10-13T12:18:33;13.60;;;12.18;;
17151;SDS011;8691;50.828;4.700;2022-10-13T12:21:02;14.90;;;10.90;;
17151;SDS011;8691;50.828;4.700;2022-10-13T12:23:28;13.47;;;10.27;;
17151;SDS011;8691;50.828;4.700;2022-10-13T12:25:54;16.17;;;11.90;;
17151;SDS011;8691;50.828;4.700;2022-10-13T12:28:28;13.60;;;11.10;;
17151;SDS011;8691;50.828;4.700;2022-10-13T12:30:57;12.77;;;9.93;;
17151;SDS011;8691;50.828;4.700;2022-10-13T12:33:28;11.00;;;8.60;;
17151;SDS011;8691;50.828;4.700;2022-10-13T12:35:53;10.30;;;9.20;;
17151;SDS011;8691;50.828;4.700;2022-10-13T12:38:20;12.65;;;9.15;;
17151;SDS011;8691;50.828;4.700;2022-10-13T12:40:48;11.27;;;8.80;;
17151;SDS011;8691;50.828;4.700;2022-10-13T12:43:16;12.50;;;8.70;;
17151;SDS011;8691;50.828;4.700;2022-10-13T12:45:42;8.63;;;7.43;;
17151;SDS011;8691;50.828;4.700;2022-10-13T12:51:14;13.30;;;9.50;;
17151;SDS011;8691;50.828;4.700;2022-10-13T12:53:40;9.27;;;8.03;;
17151;SDS011;8691;50.828;4.700;2022-10-13T12:56:16;13.88;;;8.88;;
17151;SDS011;8691;50.828;4.700;2022-10-13T12:58:34;10.60;;;8.70;;
17151;SDS011;8691;50.828;4.700;2022-10-13T13:01:07;11.90;;;8.10;;
17151;SDS011;8691;50.828;4.700;2022-10-13T13:03:33;7.90;;;6.53;;
17151;SDS011;8691;50.828;4.700;2022-10-13T13:06:19;8.70;;;6.30;;
17151;SDS011;8691;50.828;4.700;2022-10-13T13:08:33;8.27;;;5.80;;
17151;SDS011;8691;50.828;4.700;2022-10-13T13:11:01;8.25;;;5.90;;
17151;SDS011;8691;50.828;4.700;2022-10-13T13:13:33;8.88;;;5.80;;
17151;SDS011;8691;50.828;4.700;2022-10-13T13:16:13;8.23;;;4.63;;
17151;SDS011;8691;50.828;4.700;2022-10-13T13:18:39;7.60;;;6.07;;
17151;SDS011;8691;50.828;4.700;2022-10-13T13:21:06;8.30;;;5.83;;
17151;SDS011;8691;50.828;4.700;2022-10-13T13:23:32;9.77;;;6.87;;
17151;SDS011;8691;50.828;4.700;2022-10-13T13:26:00;12.65;;;8.20;;
17151;SDS011;8691;50.828;4.700;2022-10-13T13:28:30;12.52;;;8.15;;
17151;SDS011;8691;50.828;4.700;2022-10-13T13:30:56;9.27;;;7.45;;
17151;SDS011;8691;50.828;4.700;2022-10-13T13:33:23;9.30;;;7.75;;
17151;SDS011;8691;50.828;4.700;2022-10-13T13:35:50;10.43;;;6.93;;
17151;SDS011;8691;50.828;4.700;2022-10-13T13:38:16;10.55;;;7.50;;
17151;SDS011;8691;50.828;4.700;2022-10-13T13:40:43;10.57;;;7.62;;
17151;SDS011;8691;50.828;4.700;2022-10-13T13:43:10;10.32;;;7.35;;
17151;SDS011;8691;50.828;4.700;2022-10-13T13:45:36;9.90;;;6.67;;
17151;SDS011;8691;50.828;4.700;2022-10-13T13:48:07;8.63;;;6.50;;
17151;SDS011;8691;50.828;4.700;2022-10-13T13:50:31;9.53;;;6.80;;
17151;SDS011;8691;50.828;4.700;2022-10-13T13:52:57;9.35;;;6.75;;
17151;SDS011;8691;50.828;4.700;2022-10-13T13:55:25;11.07;;;7.00;;
17151;SDS011;8691;50.828;4.700;2022-10-13T13:57:52;9.87;;;7.20;;
17151;SDS011;8691;50.828;4.700;2022-10-13T14:00:19;11.32;;;7.00;;
17151;SDS011;8691;50.828;4.700;2022-10-13T14:02:46;10.43;;;7.27;;
17151;SDS011;8691;50.828;4.700;2022-10-13T14:05:13;9.00;;;7.33;;
17151;SDS011;8691;50.828;4.700;2022-10-13T14:07:40;10.95;;;7.50;;
17151;SDS011;8691;50.828;4.700;2022-10-13T14:10:08;10.60;;;7.70;;
17151;SDS011;8691;50.828;4.700;2022-10-13T14:12:35;11.47;;;7.80;;
17151;SDS011;8691;50.828;4.700;2022-10-13T14:15:02;10.45;;;8.20;;
17151;SDS011;8691;50.828;4.700;2022-10-13T14:17:29;12.35;;;9.00;;
17151;SDS011;8691;50.828;4.700;2022-10-13T14:19:56;10.50;;;8.80;;
17151;SDS011;8691;50.828;4.700;2022-10-13T14:22:23;12.60;;;9.50;;
17151;SDS011;8691;50.828;4.700;2022-10-13T14:24:50;11.40;;;9.93;;
17151;SDS011;8691;50.828;4.700;2022-10-13T14:27:18;12.55;;;10.07;;
17151;SDS011;8691;50.828;4.700;2022-10-13T14:29:45;13.70;;;10.07;;
17151;SDS011;8691;50.828;4.700;2022-10-13T14:32:12;13.88;;;10.80;;
17151;SDS011;8691;50.828;4.700;2022-10-13T14:34:40;12.65;;;10.70;;
17151;SDS011;8691;50.828;4.700;2022-10-13T14:37:07;13.23;;;11.25;;
17151;SDS011;8691;50.828;4.700;2022-10-13T14:39:33;13.62;;;11.85;;
17151;SDS011;8691;50.828;4.700;2022-10-13T14:42:00;13.37;;;11.50;;
17151;SDS011;8691;50.828;4.700;2022-10-13T14:44:28;14.55;;;11.88;;
17151;SDS011;8691;50.828;4.700;2022-10-13T14:46:55;13.83;;;10.17;;
17151;SDS011;8691;50.828;4.700;2022-10-13T14:49:23;13.23;;;11.10;;
17151;SDS011;8691;50.828;4.700;2022-10-13T14:51:50;13.00;;;11.70;;
17151;SDS011;8691;50.828;4.700;2022-10-13T14:54:18;15.48;;;12.50;;
17151;SDS011;8691;50.828;4.700;2022-10-13T14:56:45;13.20;;;11.63;;
17151;SDS011;8691;50.828;4.700;2022-10-13T14:59:12;12.20;;;10.47;;
17151;SDS011;8691;50.828;4.700;2022-10-13T15:01:39;14.02;;;11.88;;
17151;SDS011;8691;50.828;4.700;2022-10-13T15:04:06;12.10;;;10.80;;
17151;SDS011;8691;50.828;4.700;2022-10-13T15:06:33;11.50;;;10.30;;
17151;SDS011;8691;50.828;4.700;2022-10-13T15:09:00;10.18;;;6.38;;
17151;SDS011;8691;50.828;4.700;2022-10-13T15:11:28;6.70;;;4.50;;
17151;SDS011;8691;50.828;4.700;2022-10-13T15:13:56;7.57;;;4.00;;
17151;SDS011;8691;50.828;4.700;2022-10-13T15:16:25;6.95;;;3.62;;
17151;SDS011;8691;50.828;4.700;2022-10-13T15:18:50;6.03;;;3.90;;
17151;SDS011;8691;50.828;4.700;2022-10-13T15:21:18;3.85;;;3.10;;
17151;SDS011;8691;50.828;4.700;2022-10-13T15:23:44;5.37;;;2.97;;
17151;SDS011;8691;50.828;4.700;2022-10-13T15:26:11;4.03;;;2.93;;
17151;SDS011;8691;50.828;4.700;2022-10-13T15:28:41;3.23;;;2.60;;
17151;SDS011;8691;50.828;4.700;2022-10-13T15:31:10;5.07;;;3.33;;
17151;SDS011;8691;50.828;4.700;2022-10-13T15:33:38;4.40;;;3.13;;
17151;SDS011;8691;50.828;4.700;2022-10-13T15:36:04;6.40;;;3.40;;
17151;SDS011;8691;50.828;4.700;2022-10-13T15:38:31;5.30;;;3.38;;
17151;SDS011;8691;50.828;4.700;2022-10-13T15:40:58;5.00;;;3.50;;
17151;SDS011;8691;50.828;4.700;2022-10-13T15:43:27;5.03;;;3.28;;
17151;SDS011;8691;50.828;4.700;2022-10-13T15:45:55;5.10;;;3.65;;
17151;SDS011;8691;50.828;4.700;2022-10-13T15:48:21;4.88;;;3.38;;
17151;SDS011;8691;50.828;4.700;2022-10-13T15:50:48;5.28;;;3.50;;
17151;SDS011;8691;50.828;4.700;2022-10-13T15:53:15;4.03;;;3.60;;
17151;SDS011;8691;50.828;4.700;2022-10-13T15:55:42;5.88;;;3.80;;
17151;SDS011;8691;50.828;4.700;2022-10-13T15:58:09;5.28;;;3.83;;
17151;SDS011;8691;50.828;4.700;2022-10-13T16:00:37;6.05;;;3.60;;
17151;SDS011;8691;50.828;4.700;2022-10-13T16:03:03;5.70;;;3.90;;
17151;SDS011;8691;50.828;4.700;2022-10-13T16:05:30;4.85;;;3.95;;